sensor_id;sensor_type;location;lat;lon;timestamp;temperature;humidity
46752;DHT22;32497;48.936;9.270;2023-06-22T00:02:18;21.10;80.40
46752;DHT22;32497;48.936;9.270;2023-06-22T00:07:20;21.00;80.40
46752;DHT22;32497;48.936;9.270;2023-06-22T00:12:22;21.00;81.90
46752;DHT22;32497;48.936;9.270;2023-06-22T00:17:23;20.80;81.70
46752;DHT22;32497;48.936;9.270;2023-06-22T00:22:24;20.70;81.90
46752;DHT22;32497;48.936;9.270;2023-06-22T00:27:27;20.60;82.30
46752;DHT22;32497;48.936;9.270;2023-06-22T00:32:28;20.40;82.50
46752;DHT22;32497;48.936;9.270;2023-06-22T00:37:29;20.40;82.20
46752;DHT22;32497;48.936;9.270;2023-06-22T00:42:31;20.20;82.70
46752;DHT22;32497;48.936;9.270;2023-06-22T00:47:34;20.20;83.20
46752;DHT22;32497;48.936;9.270;2023-06-22T00:52:35;20.10;83.10
46752;DHT22;32497;48.936;9.270;2023-06-22T00:57:38;19.90;83.90
46752;DHT22;32497;48.936;9.270;2023-06-22T01:02:39;20.10;83.40
46752;DHT22;32497;48.936;9.270;2023-06-22T01:07:45;20.10;83.80
46752;DHT22;32497;48.936;9.270;2023-06-22T01:12:52;20.10;83.70
46752;DHT22;32497;48.936;9.270;2023-06-22T01:17:56;20.20;83.20
46752;DHT22;32497;48.936;9.270;2023-06-22T01:23:07;20.20;83.40
46752;DHT22;32497;48.936;9.270;2023-06-22T01:28:22;20.20;84.20
46752;DHT22;32497;48.936;9.270;2023-06-22T01:33:25;20.30;84.30
46752;DHT22;32497;48.936;9.270;2023-06-22T01:38:28;20.30;83.70
46752;DHT22;32497;48.936;9.270;2023-06-22T01:43:30;20.20;83.90
46752;DHT22;32497;48.936;9.270;2023-06-22T01:48:32;19.90;84.60
46752;DHT22;32497;48.936;9.270;2023-06-22T01:53:36;19.80;85.10
46752;DHT22;32497;48.936;9.270;2023-06-22T01:58:47;19.70;85.10
46752;DHT22;32497;48.936;9.270;2023-06-22T02:03:55;19.70;85.00
46752;DHT22;32497;48.936;9.270;2023-06-22T02:09:02;19.70;84.80
46752;DHT22;32497;48.936;9.270;2023-06-22T02:14:04;19.70;84.50
46752;DHT22;32497;48.936;9.270;2023-06-22T02:19:07;19.80;84.20
46752;DHT22;32497;48.936;9.270;2023-06-22T02:24:09;19.70;84.30
46752;DHT22;32497;48.936;9.270;2023-06-22T02:29:10;19.70;84.30
46752;DHT22;32497;48.936;9.270;2023-06-22T02:34:12;19.70;84.40
46752;DHT22;32497;48.936;9.270;2023-06-22T02:39:13;19.70;84.20
46752;DHT22;32497;48.936;9.270;2023-06-22T02:44:14;19.70;84.00
46752;DHT22;32497;48.936;9.270;2023-06-22T02:49:17;19.70;84.90
46752;DHT22;32497;48.936;9.270;2023-06-22T02:54:18;19.50;84.50
46752;DHT22;32497;48.936;9.270;2023-06-22T02:59:21;19.20;85.00
46752;DHT22;32497;48.936;9.270;2023-06-22T03:04:24;19.20;85.60
46752;DHT22;32497;48.936;9.270;2023-06-22T03:09:26;19.20;85.70
46752;DHT22;32497;48.936;9.270;2023-06-22T03:14:27;19.30;84.90
46752;DHT22;32497;48.936;9.270;2023-06-22T03:19:30;19.30;85.40
46752;DHT22;32497;48.936;9.270;2023-06-22T03:24:31;19.30;85.30
46752;DHT22;32497;48.936;9.270;2023-06-22T03:29:32;19.20;85.70
46752;DHT22;32497;48.936;9.270;2023-06-22T03:34:34;19.30;85.30
46752;DHT22;32497;48.936;9.270;2023-06-22T03:39:35;19.30;85.40
46752;DHT22;32497;48.936;9.270;2023-06-22T03:44:37;19.40;85.30
46752;DHT22;32497;48.936;9.270;2023-06-22T03:49:41;19.50;84.90
46752;DHT22;32497;48.936;9.270;2023-06-22T03:54:43;19.50;85.00
46752;DHT22;32497;48.936;9.270;2023-06-22T03:59:44;19.50;85.00
46752;DHT22;32497;48.936;9.270;2023-06-22T04:04:46;19.60;84.50
46752;DHT22;32497;48.936;9.270;2023-06-22T04:09:47;19.70;84.40
46752;DHT22;32497;48.936;9.270;2023-06-22T04:14:48;19.60;84.70
46752;DHT22;32497;48.936;9.270;2023-06-22T04:19:51;19.70;85.00
46752;DHT22;32497;48.936;9.270;2023-06-22T04:24:52;19.80;84.00
46752;DHT22;32497;48.936;9.270;2023-06-22T04:29:53;20.00;83.40
46752;DHT22;32497;48.936;9.270;2023-06-22T04:34:55;20.10;83.70
46752;DHT22;32497;48.936;9.270;2023-06-22T04:39:56;20.30;83.20
46752;DHT22;32497;48.936;9.270;2023-06-22T04:44:57;20.50;82.50
46752;DHT22;32497;48.936;9.270;2023-06-22T04:50:00;20.70;82.00
46752;DHT22;32497;48.936;9.270;2023-06-22T04:55:01;20.80;81.80
46752;DHT22;32497;48.936;9.270;2023-06-22T05:00:03;21.00;81.00
46752;DHT22;32497;48.936;9.270;2023-06-22T05:05:06;21.30;80.60
46752;DHT22;32497;48.936;9.270;2023-06-22T05:10:07;21.60;79.80
46752;DHT22;32497;48.936;9.270;2023-06-22T05:15:09;21.80;78.90
46752;DHT22;32497;48.936;9.270;2023-06-22T05:20:12;22.00;78.30
46752;DHT22;32497;48.936;9.270;2023-06-22T05:25:14;22.20;77.40
46752;DHT22;32497;48.936;9.270;2023-06-22T05:30:15;22.70;76.10
46752;DHT22;32497;48.936;9.270;2023-06-22T05:35:17;22.90;74.80
46752;DHT22;32497;48.936;9.270;2023-06-22T05:40:18;23.00;74.80
46752;DHT22;32497;48.936;9.270;2023-06-22T05:45:19;23.10;74.50
46752;DHT22;32497;48.936;9.270;2023-06-22T05:50:22;23.70;71.60
46752;DHT22;32497;48.936;9.270;2023-06-22T05:55:23;23.90;70.70
46752;DHT22;32497;48.936;9.270;2023-06-22T06:00:24;23.80;71.10
46752;DHT22;32497;48.936;9.270;2023-06-22T06:05:26;23.30;72.80
46752;DHT22;32497;48.936;9.270;2023-06-22T06:10:27;23.70;71.30
46752;DHT22;32497;48.936;9.270;2023-06-22T06:15:29;23.70;71.60
46752;DHT22;32497;48.936;9.270;2023-06-22T06:20:31;24.20;69.70
46752;DHT22;32497;48.936;9.270;2023-06-22T06:25:32;25.90;65.20
46752;DHT22;32497;48.936;9.270;2023-06-22T06:30:33;27.20;60.30
46752;DHT22;32497;48.936;9.270;2023-06-22T06:35:36;28.00;57.90
46752;DHT22;32497;48.936;9.270;2023-06-22T06:40:37;29.00;55.00
46752;DHT22;32497;48.936;9.270;2023-06-22T06:45:38;29.80;52.20
46752;DHT22;32497;48.936;9.270;2023-06-22T06:50:40;30.50;51.30
46752;DHT22;32497;48.936;9.270;2023-06-22T06:55:42;31.20;49.30
46752;DHT22;32497;48.936;9.270;2023-06-22T07:00:43;31.40;48.10
46752;DHT22;32497;48.936;9.270;2023-06-22T07:05:45;30.70;49.20
46752;DHT22;32497;48.936;9.270;2023-06-22T07:10:46;30.70;50.30
46752;DHT22;32497;48.936;9.270;2023-06-22T07:15:47;31.70;47.70
46752;DHT22;32497;48.936;9.270;2023-06-22T07:20:50;31.70;47.90
46752;DHT22;32497;48.936;9.270;2023-06-22T07:25:51;31.80;47.10
46752;DHT22;32497;48.936;9.270;2023-06-22T07:30:52;31.80;46.60
46752;DHT22;32497;48.936;9.270;2023-06-22T07:35:54;31.80;46.70
46752;DHT22;32497;48.936;9.270;2023-06-22T07:40:55;31.80;44.80
46752;DHT22;32497;48.936;9.270;2023-06-22T07:45:57;31.00;49.90
46752;DHT22;32497;48.936;9.270;2023-06-22T07:50:59;31.60;46.60
46752;DHT22;32497;48.936;9.270;2023-06-22T07:56:00;31.90;46.50
46752;DHT22;32497;48.936;9.270;2023-06-22T08:01:02;32.00;46.30
46752;DHT22;32497;48.936;9.270;2023-06-22T08:06:04;32.30;45.60
46752;DHT22;32497;48.936;9.270;2023-06-22T08:11:06;32.70;45.70
46752;DHT22;32497;48.936;9.270;2023-06-22T08:16:07;32.50;45.50
46752;DHT22;32497;48.936;9.270;2023-06-22T08:21:09;32.50;45.40
46752;DHT22;32497;48.936;9.270;2023-06-22T08:26:10;32.90;44.40
46752;DHT22;32497;48.936;9.270;2023-06-22T08:31:11;33.70;43.60
46752;DHT22;32497;48.936;9.270;2023-06-22T08:36:14;34.40;40.70
46752;DHT22;32497;48.936;9.270;2023-06-22T08:41:15;31.60;46.40
46752;DHT22;32497;48.936;9.270;2023-06-22T08:46:16;31.10;46.70
46752;DHT22;32497;48.936;9.270;2023-06-22T08:51:18;31.10;47.70
46752;DHT22;32497;48.936;9.270;2023-06-22T08:56:20;30.40;48.10
46752;DHT22;32497;48.936;9.270;2023-06-22T09:01:21;30.20;49.20
46752;DHT22;32497;48.936;9.270;2023-06-22T09:06:23;30.40;47.70
46752;DHT22;32497;48.936;9.270;2023-06-22T09:11:24;29.10;50.90
46752;DHT22;32497;48.936;9.270;2023-06-22T09:16:25;29.70;49.90
46752;DHT22;32497;48.936;9.270;2023-06-22T09:21:28;32.40;45.20
46752;DHT22;32497;48.936;9.270;2023-06-22T09:26:29;33.40;43.90
46752;DHT22;32497;48.936;9.270;2023-06-22T09:31:30;32.60;42.90
46752;DHT22;32497;48.936;9.270;2023-06-22T09:36:33;32.80;42.70
46752;DHT22;32497;48.936;9.270;2023-06-22T09:41:34;33.20;42.30
46752;DHT22;32497;48.936;9.270;2023-06-22T09:46:35;33.20;42.80
46752;DHT22;32497;48.936;9.270;2023-06-22T09:51:38;33.50;43.50
46752;DHT22;32497;48.936;9.270;2023-06-22T09:56:39;34.60;41.20
46752;DHT22;32497;48.936;9.270;2023-06-22T10:01:40;35.20;39.90
46752;DHT22;32497;48.936;9.270;2023-06-22T10:06:42;35.50;39.70
46752;DHT22;32497;48.936;9.270;2023-06-22T10:11:43;35.80;39.20
46752;DHT22;32497;48.936;9.270;2023-06-22T10:16:44;35.70;37.90
46752;DHT22;32497;48.936;9.270;2023-06-22T10:21:47;35.70;40.20
46752;DHT22;32497;48.936;9.270;2023-06-22T10:26:48;35.70;37.80
46752;DHT22;32497;48.936;9.270;2023-06-22T10:31:49;35.00;39.40
46752;DHT22;32497;48.936;9.270;2023-06-22T10:36:51;34.70;40.70
46752;DHT22;32497;48.936;9.270;2023-06-22T10:41:52;35.00;41.10
46752;DHT22;32497;48.936;9.270;2023-06-22T10:46:54;35.30;37.30
46752;DHT22;32497;48.936;9.270;2023-06-22T10:51:56;34.60;39.00
46752;DHT22;32497;48.936;9.270;2023-06-22T10:56:57;35.20;39.80
46752;DHT22;32497;48.936;9.270;2023-06-22T11:01:58;36.30;39.20
46752;DHT22;32497;48.936;9.270;2023-06-22T11:07:01;36.40;36.20
46752;DHT22;32497;48.936;9.270;2023-06-22T11:12:02;35.70;40.60
46752;DHT22;32497;48.936;9.270;2023-06-22T11:17:04;35.30;41.30
46752;DHT22;32497;48.936;9.270;2023-06-22T11:22:06;35.80;37.40
46752;DHT22;32497;48.936;9.270;2023-06-22T11:27:08;35.70;41.00
46752;DHT22;32497;48.936;9.270;2023-06-22T11:32:09;35.80;36.90
46752;DHT22;32497;48.936;9.270;2023-06-22T11:37:11;35.60;39.90
46752;DHT22;32497;48.936;9.270;2023-06-22T11:42:12;35.40;38.60
46752;DHT22;32497;48.936;9.270;2023-06-22T11:47:13;34.90;40.60
46752;DHT22;32497;48.936;9.270;2023-06-22T11:52:16;34.50;40.50
46752;DHT22;32497;48.936;9.270;2023-06-22T11:57:17;34.70;38.90
46752;DHT22;32497;48.936;9.270;2023-06-22T12:02:18;34.80;39.70
46752;DHT22;32497;48.936;9.270;2023-06-22T12:07:20;35.10;41.20
46752;DHT22;32497;48.936;9.270;2023-06-22T12:12:21;34.70;40.10
46752;DHT22;32497;48.936;9.270;2023-06-22T12:17:23;34.70;40.00
46752;DHT22;32497;48.936;9.270;2023-06-22T12:22:25;34.00;40.90
46752;DHT22;32497;48.936;9.270;2023-06-22T12:27:26;32.90;43.00
46752;DHT22;32497;48.936;9.270;2023-06-22T12:32:27;32.20;47.30
46752;DHT22;32497;48.936;9.270;2023-06-22T12:37:30;32.40;48.20
46752;DHT22;32497;48.936;9.270;2023-06-22T12:42:31;32.70;44.30
46752;DHT22;32497;48.936;9.270;2023-06-22T12:47:32;32.90;42.80
46752;DHT22;32497;48.936;9.270;2023-06-22T12:52:36;33.20;46.50
46752;DHT22;32497;48.936;9.270;2023-06-22T12:57:38;33.30;46.00
46752;DHT22;32497;48.936;9.270;2023-06-22T13:02:39;32.30;47.10
46752;DHT22;32497;48.936;9.270;2023-06-22T13:07:41;31.20;49.30
46752;DHT22;32497;48.936;9.270;2023-06-22T13:12:42;31.30;48.90
46752;DHT22;32497;48.936;9.270;2023-06-22T13:17:43;31.80;50.00
46752;DHT22;32497;48.936;9.270;2023-06-22T13:22:46;31.20;49.00
46752;DHT22;32497;48.936;9.270;2023-06-22T13:27:47;31.50;49.70
46752;DHT22;32497;48.936;9.270;2023-06-22T13:32:48;31.70;52.40
46752;DHT22;32497;48.936;9.270;2023-06-22T13:37:50;31.80;49.50
46752;DHT22;32497;48.936;9.270;2023-06-22T13:42:51;32.10;53.00
46752;DHT22;32497;48.936;9.270;2023-06-22T13:47:53;32.90;50.30
46752;DHT22;32497;48.936;9.270;2023-06-22T13:52:55;33.40;44.90
46752;DHT22;32497;48.936;9.270;2023-06-22T13:57:56;33.60;47.90
46752;DHT22;32497;48.936;9.270;2023-06-22T14:02:57;34.30;47.20
46752;DHT22;32497;48.936;9.270;2023-06-22T14:08:00;35.20;44.80
46752;DHT22;32497;48.936;9.270;2023-06-22T14:13:01;35.40;43.70
46752;DHT22;32497;48.936;9.270;2023-06-22T14:18:02;35.10;41.50
46752;DHT22;32497;48.936;9.270;2023-06-22T14:23:05;34.80;43.00
46752;DHT22;32497;48.936;9.270;2023-06-22T14:28:06;34.30;43.30
46752;DHT22;32497;48.936;9.270;2023-06-22T14:33:07;34.10;45.10
46752;DHT22;32497;48.936;9.270;2023-06-22T14:38:09;34.00;45.70
46752;DHT22;32497;48.936;9.270;2023-06-22T14:43:11;34.30;45.50
46752;DHT22;32497;48.936;9.270;2023-06-22T14:48:12;34.80;44.30
46752;DHT22;32497;48.936;9.270;2023-06-22T14:53:14;33.70;44.50
46752;DHT22;32497;48.936;9.270;2023-06-22T14:58:15;33.60;43.80
46752;DHT22;32497;48.936;9.270;2023-06-22T15:03:16;34.00;42.20
46752;DHT22;32497;48.936;9.270;2023-06-22T15:08:19;34.30;39.00
46752;DHT22;32497;48.936;9.270;2023-06-22T15:13:20;34.00;37.30
46752;DHT22;32497;48.936;9.270;2023-06-22T15:18:22;34.70;38.80
46752;DHT22;32497;48.936;9.270;2023-06-22T15:23:24;33.80;30.30
46752;DHT22;32497;48.936;9.270;2023-06-22T15:28:25;33.90;31.60
46752;DHT22;32497;48.936;9.270;2023-06-22T15:33:26;33.80;29.00
46752;DHT22;32497;48.936;9.270;2023-06-22T15:38:29;33.30;30.90
46752;DHT22;32497;48.936;9.270;2023-06-22T15:43:30;33.10;30.60
46752;DHT22;32497;48.936;9.270;2023-06-22T15:48:31;33.60;29.50
46752;DHT22;32497;48.936;9.270;2023-06-22T15:53:33;33.80;29.20
46752;DHT22;32497;48.936;9.270;2023-06-22T15:58:35;33.70;30.70
46752;DHT22;32497;48.936;9.270;2023-06-22T16:03:36;32.90;31.30
46752;DHT22;32497;48.936;9.270;2023-06-22T16:08:38;32.50;31.80
46752;DHT22;32497;48.936;9.270;2023-06-22T16:13:39;32.70;33.40
46752;DHT22;32497;48.936;9.270;2023-06-22T16:18:40;32.70;32.80
46752;DHT22;32497;48.936;9.270;2023-06-22T16:23:43;32.20;33.20
46752;DHT22;32497;48.936;9.270;2023-06-22T16:28:44;31.70;33.20
46752;DHT22;32497;48.936;9.270;2023-06-22T16:33:45;31.70;34.40
46752;DHT22;32497;48.936;9.270;2023-06-22T16:38:47;31.10;34.50
46752;DHT22;32497;48.936;9.270;2023-06-22T16:43:49;30.80;36.10
46752;DHT22;32497;48.936;9.270;2023-06-22T16:48:50;30.80;36.10
46752;DHT22;32497;48.936;9.270;2023-06-22T16:53:55;30.90;36.60
46752;DHT22;32497;48.936;9.270;2023-06-22T16:58:58;31.50;35.80
46752;DHT22;32497;48.936;9.270;2023-06-22T17:04:03;32.20;35.70
46752;DHT22;32497;48.936;9.270;2023-06-22T17:09:11;32.50;36.00
46752;DHT22;32497;48.936;9.270;2023-06-22T17:14:13;32.20;35.70
46752;DHT22;32497;48.936;9.270;2023-06-22T17:19:15;31.10;36.50
46752;DHT22;32497;48.936;9.270;2023-06-22T17:24:18;30.40;37.90
46752;DHT22;32497;48.936;9.270;2023-06-22T17:29:19;29.90;36.60
46752;DHT22;32497;48.936;9.270;2023-06-22T17:34:20;29.40;37.40
46752;DHT22;32497;48.936;9.270;2023-06-22T17:39:24;29.40;38.90
46752;DHT22;32497;48.936;9.270;2023-06-22T17:44:26;29.40;38.90
46752;DHT22;32497;48.936;9.270;2023-06-22T17:49:29;29.00;39.30
46752;DHT22;32497;48.936;9.270;2023-06-22T17:54:32;28.70;39.20
46752;DHT22;32497;48.936;9.270;2023-06-22T17:59:33;28.40;40.40
46752;DHT22;32497;48.936;9.270;2023-06-22T18:04:34;28.20;40.80
46752;DHT22;32497;48.936;9.270;2023-06-22T18:09:37;28.00;41.50
46752;DHT22;32497;48.936;9.270;2023-06-22T18:14:38;27.90;42.30
46752;DHT22;32497;48.936;9.270;2023-06-22T18:19:41;27.70;42.10
46752;DHT22;32497;48.936;9.270;2023-06-22T18:24:45;27.40;42.90
46752;DHT22;32497;48.936;9.270;2023-06-22T18:29:48;27.30;43.60
46752;DHT22;32497;48.936;9.270;2023-06-22T18:34:50;27.20;44.20
46752;DHT22;32497;48.936;9.270;2023-06-22T18:39:53;27.10;44.50
46752;DHT22;32497;48.936;9.270;2023-06-22T18:44:55;26.90;44.60
46752;DHT22;32497;48.936;9.270;2023-06-22T18:50:05;26.80;45.80
46752;DHT22;32497;48.936;9.270;2023-06-22T18:55:11;26.50;47.00
46752;DHT22;32497;48.936;9.270;2023-06-22T19:00:14;26.40;47.10
46752;DHT22;32497;48.936;9.270;2023-06-22T19:05:17;26.20;47.60
46752;DHT22;32497;48.936;9.270;2023-06-22T19:10:24;26.10;47.60
46752;DHT22;32497;48.936;9.270;2023-06-22T19:15:32;25.90;48.10
46752;DHT22;32497;48.936;9.270;2023-06-22T19:20:33;25.70;49.10
46752;DHT22;32497;48.936;9.270;2023-06-22T19:25:36;25.60;48.80
46752;DHT22;32497;48.936;9.270;2023-06-22T19:30:37;25.50;51.10
46752;DHT22;32497;48.936;9.270;2023-06-22T19:35:41;25.00;54.20
46752;DHT22;32497;48.936;9.270;2023-06-22T19:40:43;24.50;54.50
46752;DHT22;32497;48.936;9.270;2023-06-22T19:45:45;24.30;56.10
46752;DHT22;32497;48.936;9.270;2023-06-22T19:50:46;23.70;60.80
46752;DHT22;32497;48.936;9.270;2023-06-22T19:55:50;23.10;62.00
46752;DHT22;32497;48.936;9.270;2023-06-22T20:00:54;22.80;63.10
46752;DHT22;32497;48.936;9.270;2023-06-22T20:06:04;22.80;62.20
46752;DHT22;32497;48.936;9.270;2023-06-22T20:11:09;23.00;61.80
46752;DHT22;32497;48.936;9.270;2023-06-22T20:16:10;23.10;62.00
46752;DHT22;32497;48.936;9.270;2023-06-22T20:21:12;23.10;61.40
46752;DHT22;32497;48.936;9.270;2023-06-22T20:26:15;23.20;61.50
46752;DHT22;32497;48.936;9.270;2023-06-22T20:31:16;23.20;61.90
46752;DHT22;32497;48.936;9.270;2023-06-22T20:36:17;23.20;62.00
46752;DHT22;32497;48.936;9.270;2023-06-22T20:41:20;23.20;62.20
46752;DHT22;32497;48.936;9.270;2023-06-22T20:46:21;23.20;63.30
46752;DHT22;32497;48.936;9.270;2023-06-22T20:51:22;23.40;64.80
46752;DHT22;32497;48.936;9.270;2023-06-22T20:56:24;23.30;66.30
46752;DHT22;32497;48.936;9.270;2023-06-22T21:01:25;22.80;69.10
46752;DHT22;32497;48.936;9.270;2023-06-22T21:06:27;22.60;71.10
46752;DHT22;32497;48.936;9.270;2023-06-22T21:11:29;22.30;72.00
46752;DHT22;32497;48.936;9.270;2023-06-22T21:16:30;22.10;72.10
46752;DHT22;32497;48.936;9.270;2023-06-22T21:21:33;21.90;71.70
46752;DHT22;32497;48.936;9.270;2023-06-22T21:26:36;21.70;72.60
46752;DHT22;32497;48.936;9.270;2023-06-22T21:31:37;21.60;72.70
46752;DHT22;32497;48.936;9.270;2023-06-22T21:36:38;21.50;73.20
46752;DHT22;32497;48.936;9.270;2023-06-22T21:41:41;21.30;73.70
46752;DHT22;32497;48.936;9.270;2023-06-22T21:46:42;21.20;74.10
46752;DHT22;32497;48.936;9.270;2023-06-22T21:51:43;21.10;74.90
46752;DHT22;32497;48.936;9.270;2023-06-22T21:56:45;21.10;74.30
46752;DHT22;32497;48.936;9.270;2023-06-22T22:01:46;20.80;75.30
46752;DHT22;32497;48.936;9.270;2023-06-22T22:06:48;20.70;76.00
46752;DHT22;32497;48.936;9.270;2023-06-22T22:11:50;20.50;76.30
46752;DHT22;32497;48.936;9.270;2023-06-22T22:16:51;20.50;76.30
46752;DHT22;32497;48.936;9.270;2023-06-22T22:21:52;20.40;76.20
46752;DHT22;32497;48.936;9.270;2023-06-22T22:26:55;20.50;76.10
46752;DHT22;32497;48.936;9.270;2023-06-22T22:31:56;20.40;75.50
46752;DHT22;32497;48.936;9.270;2023-06-22T22:36:57;20.30;75.90
46752;DHT22;32497;48.936;9.270;2023-06-22T22:41:59;20.30;75.90
46752;DHT22;32497;48.936;9.270;2023-06-22T22:47:00;20.20;76.70
46752;DHT22;32497;48.936;9.270;2023-06-22T22:52:02;20.30;76.40
46752;DHT22;32497;48.936;9.270;2023-06-22T22:57:04;20.40;76.60
46752;DHT22;32497;48.936;9.270;2023-06-22T23:02:06;20.30;76.80
46752;DHT22;32497;48.936;9.270;2023-06-22T23:07:07;20.20;77.20
46752;DHT22;32497;48.936;9.270;2023-06-22T23:12:10;20.20;77.50
46752;DHT22;32497;48.936;9.270;2023-06-22T23:17:11;20.30;77.30
46752;DHT22;32497;48.936;9.270;2023-06-22T23:22:12;20.20;77.30
46752;DHT22;32497;48.936;9.270;2023-06-22T23:27:15;20.10;77.30
46752;DHT22;32497;48.936;9.270;2023-06-22T23:32:16;20.20;77.40
46752;DHT22;32497;48.936;9.270;2023-06-22T23:37:17;20.30;76.90
46752;DHT22;32497;48.936;9.270;2023-06-22T23:42:19;20.30;77.00
46752;DHT22;32497;48.936;9.270;2023-06-22T23:47:20;20.40;76.70
46752;DHT22;32497;48.936;9.270;2023-06-22T23:52:21;20.30;77.10
46752;DHT22;32497;48.936;9.270;2023-06-22T23:57:24;20.40;77.30
